createdAt,value
2018-04-18T00:01:44.652Z,19.55
2018-04-18T00:04:54.394Z,16.50
2018-04-18T00:08:04.340Z,19.27
2018-04-18T00:11:15.654Z,16.20
2018-04-18T00:14:25.839Z,17.77
2018-04-18T00:17:35.887Z,19.00
2018-04-18T00:20:46.752Z,17.08
2018-04-18T00:23:57.082Z,17.42
2018-04-18T00:27:07.061Z,15.05
2018-04-18T00:30:16.948Z,17.52
2018-04-18T00:33:27.170Z,20.25
2018-04-18T00:36:37.392Z,16.50
2018-04-18T00:39:47.431Z,16.52
2018-04-18T00:42:58.142Z,16.45
2018-04-18T00:46:08.301Z,19.75
2018-04-18T00:49:18.293Z,16.50
2018-04-18T00:52:28.076Z,16.45
2018-04-18T00:55:37.908Z,18.55
2018-04-18T00:58:49.327Z,17.35
2018-04-18T01:01:59.986Z,14.00
2018-04-18T01:05:10.770Z,20.92
2018-04-18T01:08:20.710Z,16.37
2018-04-18T01:11:30.690Z,16.60
2018-04-18T01:14:41.247Z,14.98
2018-04-18T01:17:51.506Z,15.27
2018-04-18T01:21:01.642Z,14.87
2018-04-18T01:24:11.436Z,14.65
2018-04-18T01:27:22.067Z,19.33
2018-04-18T01:30:31.992Z,16.17
2018-04-18T01:33:42.699Z,14.60
2018-04-18T01:36:52.805Z,17.30
2018-04-18T01:40:03.311Z,17.70
2018-04-18T01:43:13.301Z,11.50
2018-04-18T01:46:23.438Z,15.60
2018-04-18T01:49:33.258Z,10.60
2018-04-18T01:52:43.545Z,15.63
2018-04-18T01:55:53.756Z,14.43
2018-04-18T01:59:03.616Z,17.65
2018-04-18T02:02:13.401Z,16.27
2018-04-18T02:05:23.293Z,18.37
2018-04-18T02:08:33.283Z,17.65
2018-04-18T02:11:43.553Z,16.12
2018-04-18T02:14:53.565Z,18.05
2018-04-18T02:18:03.825Z,14.87
2018-04-18T02:21:13.883Z,15.70
2018-04-18T02:24:24.053Z,14.90
2018-04-18T02:27:34.770Z,15.02
2018-04-18T02:30:44.820Z,17.85
2018-04-18T02:33:55.038Z,16.00
2018-04-18T02:37:06.148Z,10.98
2018-04-18T02:40:16.514Z,15.02
2018-04-18T02:43:27.892Z,17.48
2018-04-18T02:46:38.622Z,15.93
2018-04-18T02:49:48.621Z,15.55
2018-04-18T02:52:59.251Z,14.82
2018-04-18T02:56:09.312Z,19.37
2018-04-18T02:59:19.157Z,15.80
2018-04-18T03:02:29.735Z,16.87
2018-04-18T03:05:39.701Z,16.17
2018-04-18T03:08:49.656Z,16.85
2018-04-18T03:11:59.595Z,12.02
2018-04-18T03:15:09.652Z,17.48
2018-04-18T03:18:20.570Z,18.48
2018-04-18T03:21:31.094Z,16.10
2018-04-18T03:24:41.110Z,16.35
2018-04-18T03:27:51.019Z,18.23
2018-04-18T03:31:01.718Z,19.60
2018-04-18T03:34:13.424Z,19.85
2018-04-18T03:37:23.738Z,14.30
2018-04-18T03:40:34.188Z,15.65
2018-04-18T03:43:44.718Z,14.77
2018-04-18T03:46:55.423Z,12.37
2018-04-18T03:50:06.221Z,21.48
2018-04-18T03:53:17.194Z,15.65
2018-04-18T03:56:27.921Z,15.90
2018-04-18T03:59:38.237Z,20.20
2018-04-18T04:02:48.087Z,14.52
2018-04-18T04:05:58.413Z,12.55
2018-04-18T04:09:08.485Z,15.98
2018-04-18T04:12:18.538Z,16.95
2018-04-18T04:15:28.817Z,17.73
2018-04-18T04:18:49.909Z,16.33
2018-04-18T04:22:11.811Z,16.17
2018-04-18T04:25:22.358Z,17.73
2018-04-18T04:28:33.914Z,16.65
2018-04-18T04:31:43.842Z,13.93
2018-04-18T04:34:53.645Z,17.02
2018-04-18T04:38:03.616Z,14.95
2018-04-18T04:41:13.594Z,16.35
2018-04-18T04:44:23.455Z,14.05
2018-04-18T04:47:33.296Z,14.73
2018-04-18T04:50:43.356Z,16.60
2018-04-18T04:53:54.002Z,16.85
2018-04-18T04:57:04.186Z,14.75
2018-04-18T05:00:14.302Z,17.33
2018-04-18T05:03:24.122Z,17.67
2018-04-18T05:06:34.245Z,15.32
2018-04-18T05:09:45.604Z,15.07
2018-04-18T05:12:55.713Z,18.27
2018-04-18T05:16:05.845Z,14.65
2018-04-18T05:19:15.708Z,16.62
2018-04-18T05:22:25.625Z,16.48
2018-04-18T05:25:35.465Z,15.02
2018-04-18T05:28:45.310Z,16.60
2018-04-18T05:31:55.422Z,14.50
2018-04-18T05:35:05.250Z,15.70
2018-04-18T05:38:15.254Z,18.87
2018-04-18T05:41:25.892Z,17.37
2018-04-18T05:44:36.260Z,18.08
2018-04-18T05:47:46.291Z,17.17
2018-04-18T05:50:56.386Z,16.52
2018-04-18T05:54:06.302Z,15.40
2018-04-18T05:57:17.138Z,17.35
2018-04-18T06:00:27.278Z,18.50
2018-04-18T06:03:37.255Z,16.65
2018-04-18T06:06:47.215Z,15.95
2018-04-18T06:09:57.077Z,17.67
2018-04-18T06:13:07.822Z,15.82
2018-04-18T06:16:17.747Z,14.77
2018-04-18T06:19:29.144Z,16.77
2018-04-18T06:22:39.370Z,18.55
2018-04-18T06:25:49.400Z,17.00
2018-04-18T06:28:59.357Z,19.73
2018-04-18T06:32:09.329Z,17.50
2018-04-18T06:35:19.508Z,15.32
2018-04-18T06:38:29.646Z,16.02
2018-04-18T06:41:40.258Z,16.73
2018-04-18T06:44:50.111Z,16.67
2018-04-18T06:48:00.209Z,16.10
2018-04-18T06:51:10.472Z,15.88
2018-04-18T06:54:21.103Z,15.57
2018-04-18T06:57:31.173Z,13.95
2018-04-18T07:00:41.270Z,17.42
2018-04-18T07:03:50.991Z,19.37
2018-04-18T07:07:00.958Z,19.33
2018-04-18T07:10:10.903Z,15.68
2018-04-18T07:13:21.488Z,19.48
2018-04-18T07:16:31.951Z,17.10
2018-04-18T07:19:41.681Z,20.55
2018-04-18T07:22:51.974Z,17.70
2018-04-18T07:26:02.117Z,16.02
2018-04-18T07:29:12.118Z,16.40
2018-04-18T07:32:22.042Z,18.37
2018-04-18T07:35:32.640Z,18.05
2018-04-18T07:38:43.515Z,19.12
2018-04-18T07:41:53.896Z,21.27
2018-04-18T07:45:04.241Z,18.10
2018-04-18T07:48:14.816Z,18.15
2018-04-18T07:51:24.693Z,16.02
2018-04-18T07:54:35.586Z,19.35
2018-04-18T07:57:45.382Z,15.70
2018-04-18T08:00:55.556Z,19.27
2018-04-18T08:04:06.422Z,16.70
2018-04-18T08:07:16.613Z,16.25
2018-04-18T08:10:27.455Z,15.35
2018-04-18T08:13:37.847Z,14.87
2018-04-18T08:16:47.606Z,13.93
2018-04-18T08:19:57.948Z,15.60
2018-04-18T08:23:07.742Z,14.82
2018-04-18T08:26:17.896Z,13.50
2018-04-18T08:29:27.880Z,15.00
2018-04-18T08:32:37.925Z,15.70
2018-04-18T08:35:47.999Z,14.40
2018-04-18T08:38:58.194Z,15.90
2018-04-18T08:42:08.110Z,18.08
2018-04-18T08:45:18.823Z,14.57
2018-04-18T08:48:28.556Z,17.02
2018-04-18T08:51:39.284Z,12.98
2018-04-18T08:54:49.833Z,15.60
2018-04-18T08:57:59.701Z,10.70
2018-04-18T09:01:09.493Z,11.35
2018-04-18T09:04:20.237Z,11.12
2018-04-18T09:07:31.190Z,9.63
2018-04-18T09:10:41.439Z,12.37
2018-04-18T09:13:51.637Z,12.60
2018-04-18T09:17:02.284Z,10.18
2018-04-18T09:20:12.751Z,8.77
2018-04-18T09:23:22.594Z,9.82
2018-04-18T09:26:32.588Z,9.20
2018-04-18T09:29:43.306Z,10.00
2018-04-18T09:32:53.771Z,8.88
2018-04-18T09:36:05.358Z,11.90
2018-04-18T09:39:16.350Z,10.60
2018-04-18T09:42:26.465Z,10.70
2018-04-18T09:45:36.752Z,10.95
2018-04-18T09:48:46.556Z,10.52
2018-04-18T09:51:56.546Z,13.27
2018-04-18T09:55:07.047Z,13.30
2018-04-18T09:58:17.070Z,13.82
2018-04-18T10:01:32.737Z,13.25
2018-04-18T10:04:44.777Z,12.27
2018-04-18T10:07:54.841Z,15.18
2018-04-18T10:11:05.067Z,12.77
2018-04-18T10:14:14.906Z,12.37
2018-04-18T10:17:26.377Z,11.57
2018-04-18T10:20:36.726Z,12.13
2018-04-18T10:23:46.535Z,12.00
2018-04-18T10:26:56.330Z,12.80
2018-04-18T10:30:06.562Z,8.85
2018-04-18T10:33:16.693Z,10.07
2018-04-18T10:36:26.455Z,11.15
2018-04-18T10:39:36.399Z,10.90
2018-04-18T10:42:47.392Z,6.57
2018-04-18T10:45:57.540Z,7.40
2018-04-18T10:49:08.105Z,8.20
2018-04-18T10:52:17.831Z,7.57
2018-04-18T10:55:27.772Z,10.02
2018-04-18T10:58:37.659Z,7.07
2018-04-18T11:01:48.406Z,6.85
2018-04-18T11:04:58.155Z,9.15
2018-04-18T11:08:08.726Z,4.75
2018-04-18T11:11:19.021Z,8.93
2018-04-18T11:14:29.734Z,8.48
2018-04-18T11:17:39.730Z,7.90
2018-04-18T11:20:49.504Z,7.55
2018-04-18T11:23:59.841Z,8.05
2018-04-18T11:27:10.127Z,6.07
2018-04-18T11:30:20.475Z,8.95
2018-04-18T11:33:30.491Z,7.15
2018-04-18T11:36:40.398Z,7.32
2018-04-18T11:39:51.172Z,7.72
2018-04-18T11:43:01.477Z,8.05
2018-04-18T11:46:12.060Z,10.07
2018-04-18T11:49:21.929Z,8.90
2018-04-18T11:52:31.925Z,12.32
2018-04-18T11:55:42.653Z,9.45
2018-04-18T11:58:53.165Z,10.50
2018-04-18T12:02:03.555Z,8.32
2018-04-18T12:05:13.414Z,9.88
2018-04-18T12:08:23.497Z,9.15
2018-04-18T12:11:33.575Z,10.50
2018-04-18T12:14:43.674Z,10.70
2018-04-18T12:17:54.614Z,9.80
2018-04-18T12:21:05.276Z,10.73
2018-04-18T12:24:15.752Z,11.60
2018-04-18T12:27:26.393Z,13.05
2018-04-18T12:30:36.501Z,9.98
2018-04-18T12:33:46.563Z,11.57
2018-04-18T12:36:56.753Z,9.18
2018-04-18T12:40:06.719Z,9.65
2018-04-18T12:43:17.131Z,8.63
2018-04-18T12:46:26.714Z,9.60
2018-04-18T12:49:36.609Z,11.63
2018-04-18T12:52:46.651Z,9.00
2018-04-18T12:55:56.420Z,11.47
2018-04-18T12:59:06.333Z,10.37
2018-04-18T13:02:16.199Z,10.90
2018-04-18T13:05:27.304Z,10.50
2018-04-18T13:08:37.411Z,15.23
2018-04-18T13:11:47.504Z,11.17
2018-04-18T13:14:57.306Z,10.67
2018-04-18T13:18:08.299Z,9.40
2018-04-18T13:21:18.108Z,9.70
2018-04-18T13:24:27.982Z,12.30
2018-04-18T13:27:37.956Z,12.80
2018-04-18T13:30:47.817Z,6.43
2018-04-18T13:33:57.908Z,10.37
2018-04-18T13:37:07.947Z,10.60
2018-04-18T13:40:17.469Z,10.90
2018-04-18T13:43:27.546Z,12.43
2018-04-18T13:46:37.535Z,13.53
2018-04-18T13:49:47.445Z,10.67
2018-04-18T13:52:58.256Z,11.20
2018-04-18T13:56:08.838Z,11.37
2018-04-18T13:59:19.710Z,12.23
2018-04-18T14:02:29.854Z,12.40
2018-04-18T14:05:40.580Z,10.80
2018-04-18T14:08:51.889Z,9.10
2018-04-18T14:12:02.205Z,12.57
2018-04-18T14:15:13.176Z,12.23
2018-04-18T14:18:23.186Z,11.17
2018-04-18T14:21:34.426Z,10.80
2018-04-18T14:24:45.104Z,10.90
2018-04-18T14:27:55.159Z,9.83
2018-04-18T14:31:05.115Z,12.90
2018-04-18T14:34:15.152Z,11.50
2018-04-18T14:37:25.607Z,9.80
2018-04-18T14:40:35.575Z,8.97
2018-04-18T14:43:45.498Z,8.30
2018-04-18T14:46:57.705Z,7.77
2018-04-18T14:50:08.508Z,8.77
2018-04-18T14:53:18.371Z,10.37
2018-04-18T14:56:28.055Z,8.93
2018-04-18T14:59:38.405Z,10.53
2018-04-18T15:02:48.578Z,11.80
2018-04-18T15:05:58.590Z,8.40
2018-04-18T15:09:09.080Z,8.93
2018-04-18T15:12:19.230Z,7.17
2018-04-18T15:15:29.695Z,8.43
2018-04-18T15:18:39.989Z,8.50
2018-04-18T15:21:49.851Z,7.10
2018-04-18T15:24:59.685Z,7.10
2018-04-18T15:28:09.523Z,7.77
2018-04-18T15:31:19.188Z,6.40
2018-04-18T15:34:29.459Z,7.63
2018-04-18T15:37:39.320Z,6.27
2018-04-18T15:40:49.087Z,7.37
2018-04-18T15:43:59.345Z,6.50
2018-04-18T15:47:11.952Z,5.80
2018-04-18T15:50:22.966Z,8.30
2018-04-18T15:53:33.154Z,6.53
2018-04-18T15:56:43.129Z,5.60
2018-04-18T15:59:53.058Z,6.43
2018-04-18T16:03:03.105Z,6.07
2018-04-18T16:06:13.230Z,7.90
2018-04-18T16:09:23.664Z,5.37
2018-04-18T16:12:33.569Z,5.23
2018-04-18T16:15:47.805Z,5.13
2018-04-18T16:18:58.931Z,5.30
2018-04-18T16:22:08.850Z,6.33
2018-04-18T16:25:18.542Z,6.73
2018-04-18T16:28:31.295Z,5.23
2018-04-18T16:31:41.995Z,6.47
2018-04-18T16:34:52.686Z,7.32
2018-04-18T16:38:02.587Z,7.93
2018-04-18T16:41:13.110Z,9.80
2018-04-18T16:44:24.677Z,16.00
2018-04-18T16:47:35.138Z,17.60
2018-04-18T16:50:45.828Z,9.82
2018-04-18T16:53:56.105Z,6.85
2018-04-18T16:57:06.672Z,8.98
2018-04-18T17:00:18.362Z,7.95
2018-04-18T17:03:29.214Z,7.10
2018-04-18T17:06:40.052Z,8.50
2018-04-18T17:09:50.048Z,6.80
2018-04-18T17:13:00.043Z,8.68
2018-04-18T17:16:09.955Z,6.85
2018-04-18T17:19:19.714Z,6.95
2018-04-18T17:22:29.918Z,9.10
2018-04-18T17:25:39.946Z,6.18
2018-04-18T17:28:50.719Z,6.57
2018-04-18T17:32:00.669Z,7.05
2018-04-18T17:35:11.355Z,7.60
2018-04-18T17:38:21.336Z,5.07
2018-04-18T17:41:31.288Z,7.18
2018-04-18T17:44:41.533Z,5.87
2018-04-18T17:47:52.162Z,6.68
2018-04-18T17:51:02.409Z,7.68
2018-04-18T17:54:12.197Z,5.85
2018-04-18T17:57:22.065Z,5.95
2018-04-18T18:00:32.265Z,6.03
2018-04-18T18:03:42.956Z,9.20
2018-04-18T18:06:52.992Z,6.35
2018-04-18T18:10:03.096Z,6.28
2018-04-18T18:13:14.959Z,6.05
2018-04-18T18:16:25.736Z,7.00
2018-04-18T18:19:35.762Z,5.85
2018-04-18T18:22:46.092Z,4.90
2018-04-18T18:25:56.534Z,5.95
2018-04-18T18:29:06.940Z,5.45
2018-04-18T18:32:17.476Z,5.62
2018-04-18T18:35:29.146Z,6.62
2018-04-18T18:38:39.563Z,8.23
2018-04-18T18:41:50.226Z,5.93
2018-04-18T18:45:00.349Z,6.78
2018-04-18T18:48:11.142Z,6.05
2018-04-18T18:51:21.543Z,6.00
2018-04-18T18:54:31.996Z,7.10
2018-04-18T18:57:42.241Z,5.90
2018-04-18T19:00:52.749Z,8.35
2018-04-18T19:04:03.287Z,6.65
2018-04-18T19:07:13.409Z,4.60
2018-04-18T19:10:23.866Z,6.03
2018-04-18T19:13:33.842Z,8.80
2018-04-18T19:16:43.951Z,6.82
2018-04-18T19:19:54.197Z,8.30
2018-04-18T19:23:04.545Z,7.90
2018-04-18T19:26:14.574Z,8.52
2018-04-18T19:29:24.708Z,7.55
2018-04-18T19:32:34.511Z,8.20
2018-04-18T19:35:44.871Z,10.88
2018-04-18T19:38:54.981Z,11.32
2018-04-18T19:42:04.654Z,11.20
2018-04-18T19:45:15.259Z,8.60
2018-04-18T19:48:25.059Z,10.60
2018-04-18T19:51:35.390Z,9.98
2018-04-18T19:54:45.464Z,8.82
2018-04-18T19:57:55.661Z,7.75
2018-04-18T20:01:06.206Z,10.82
2018-04-18T20:04:16.349Z,9.50
2018-04-18T20:07:27.057Z,10.07
2018-04-18T20:10:37.359Z,10.20
2018-04-18T20:13:47.779Z,9.82
2018-04-18T20:16:58.717Z,10.35
2018-04-18T20:20:09.612Z,10.30
2018-04-18T20:23:19.646Z,10.60
2018-04-18T20:26:30.211Z,10.40
2018-04-18T20:29:41.408Z,11.32
2018-04-18T20:32:51.257Z,9.73
2018-04-18T20:36:02.340Z,8.73
2018-04-18T20:39:12.468Z,6.78
2018-04-18T20:42:22.757Z,10.50
2018-04-18T20:45:32.607Z,9.20
2018-04-18T20:48:43.221Z,8.95
2018-04-18T20:51:53.871Z,7.95
2018-04-18T20:55:04.057Z,9.88
2018-04-18T20:58:14.110Z,9.98
2018-04-18T21:01:25.916Z,7.90
2018-04-18T21:04:35.840Z,9.30
2018-04-18T21:07:46.158Z,6.47
2018-04-18T21:10:56.766Z,11.63
2018-04-18T21:14:07.833Z,7.97
2018-04-18T21:17:17.551Z,5.25
2018-04-18T21:20:27.516Z,7.57
2018-04-18T21:23:38.181Z,8.27
2018-04-18T21:26:48.456Z,7.28
2018-04-18T21:29:59.872Z,10.10
2018-04-18T21:33:10.630Z,6.32
2018-04-18T21:36:20.930Z,7.00
2018-04-18T21:39:31.909Z,6.30
2018-04-18T21:42:41.798Z,8.55
2018-04-18T21:45:52.062Z,9.68
2018-04-18T21:49:02.920Z,8.73
2018-04-18T21:52:13.266Z,6.47
2018-04-18T21:55:24.006Z,7.20
2018-04-18T21:58:34.013Z,5.82
2018-04-18T22:01:44.246Z,10.07
2018-04-18T22:04:55.782Z,7.80
2018-04-18T22:08:05.957Z,7.03
2018-04-18T22:11:16.300Z,7.20
2018-04-18T22:14:27.639Z,7.53
2018-04-18T22:17:37.952Z,4.53
2018-04-18T22:20:47.721Z,6.20
2018-04-18T22:23:58.700Z,7.18
2018-04-18T22:27:09.738Z,5.78
2018-04-18T22:30:20.263Z,5.15
2018-04-18T22:33:30.752Z,4.65
2018-04-18T22:36:40.898Z,5.15
2018-04-18T22:39:51.451Z,5.47
2018-04-18T22:43:02.134Z,6.93
2018-04-18T22:46:12.140Z,5.45
2018-04-18T22:49:22.659Z,5.12
2018-04-18T22:52:32.748Z,6.15
2018-04-18T22:55:42.792Z,5.93
2018-04-18T22:58:53.959Z,8.05
2018-04-18T23:02:04.255Z,5.82
2018-04-18T23:05:15.609Z,6.15
2018-04-18T23:08:26.540Z,5.95
2018-04-18T23:11:37.551Z,6.82
2018-04-18T23:14:48.424Z,5.80
2018-04-18T23:17:58.250Z,8.30
2018-04-18T23:21:08.407Z,5.45
2018-04-18T23:24:18.781Z,5.00
2018-04-18T23:27:29.209Z,5.60
2018-04-18T23:30:39.096Z,6.78
2018-04-18T23:33:49.261Z,5.22
2018-04-18T23:36:59.847Z,4.62
2018-04-18T23:40:09.910Z,6.53
2018-04-18T23:43:20.376Z,5.97
2018-04-18T23:46:30.641Z,6.10
2018-04-18T23:49:41.871Z,6.70
2018-04-18T23:52:52.306Z,6.20
2018-04-18T23:56:02.326Z,5.18
2018-04-18T23:59:12.987Z,5.45
